Spangle, Washington
Current Conditions -  °F | °C
As of 2:53 PM on Sunday 21 Dec 2014 (Local Time) from KGEG Reporting Station
Broken Clouds Broken Clouds  
Wind Chill: 40°   Ceiling: 14000
Heat Index: 47°   Visibility: 10mi
Dew Point: 37°   Wind: 17mph
Humidity: 68%   Direction: 260°W
Pressure: 29.85"   Gusts: NA
Location:  47.43°N, 117.38°W
Report Text: KGEG 212253Z 26015KT 10SM FEW030 BKN140 BKN200 08/03 A2985 RMK AO2 PK WND 26029/2216 SLP113 T00830028
Loading
Personal Weather Stations






























Interactive Weather Map New forecast layout! Learn more

10-Day Weather Forecast

Advertisements
Track Severe Weather on mobile